Abington, Pennsylvania
Current Conditions -  °F | °C
As of 12:54 PM on Thursday 29 Jan 2015 (Local Time) from KPNE Reporting Station
Scattered Clouds Scattered Clouds  
Wind Chill: 24°   Ceiling: Unl
Heat Index: 31°   Visibility: 10mi
Dew Point:   Wind: 7mph
Humidity: 37%   Direction: 140°SE
Pressure: 30.24"   Gusts: NA
Location:  40.12°N, 75.12°W
Report Text: KPNE 291754Z AUTO 14006KT 10SM SCT110 M01/M14 A3024 RMK AO2 SLP243 T10061139 11006 21078 58032 TSNO
Loading
Personal Weather Stations






























Interactive Weather Map New forecast layout! Learn more

10-Day Weather Forecast

Advertisements
Track Severe Weather on mobile